VVPB/HUI METAR and TAF weather

Enter ICAO airport designator
Station Type Date Time Source
VVPB METAR 2021/05/14 06:30 UTC NOAA

VVPB 140630Z 06010KT 9999 FEW017TCU 35/24 Q1005 NOSIG


Station Type Date Time Source
VVPB Decoded METAR 2021/05/14 06:30 UTC NOAA

Hue, Vietnam (VVPB) 16-24N 107-41E 17M
May 14, 2021 - 02:30 AM EDT / 2021.05.14 0630 UTC
Wind: from the ENE (060 degrees) at 12 MPH (10 KT):0
Visibility: greater than 7 mile(s):0
Sky conditions: mostly clear
Weather: Towering cumulus clouds observed
Temperature: 95 F (35 C)
Heat index: 107.4 F (41.9 C):1
Dew Point: 75 F (24 C)
Relative Humidity: 53%
Pressure (altimeter): 29.68 in. Hg (1005 hPa)
ob: VVPB 140630Z 06010KT 9999 FEW017TCU 35/24 Q1005 NOSIG
cycle: 6

Station Type Date Time Source
VVPB TAF 2021/05/13 18:00 UTC NOAA

TAF VVPB 131700Z 1318/1418 26002KT 9999 FEW015 SCT070
BECMG 1403/1405 06010KT
TEMPO 1407/1412 TS SCT013 FEW017CB SCT060
BECMG 1413/1414 25003KT

Example: see airport list